Marine Rouge — JG5115 — position and weather

sailwx.info

Track history (hours):
 
Tides and Currents Weather Stations Pressure Air Temp Water Temp Dewpoint Dewpoint Depression Visibility Wind Speed Wind Dir Waves Ship Positions

Marine Rouge

Last reported at 2014-Oct-22 02:33 UTC. Time now 2014-Oct-22 03:12 UTC.
Position N 35°27' E 139°39'.

Length 52 m; draft 2.8 m.

Type: Passenger vessel. MMSI: 431000518.

Date/timePositionNaut miles runAvg speedWind from/ knotsBaromVisibWave heightAir tempDewpointWater temp
2014-Oct-22 02:33N 35°27' E 139°39'0 0.0
2014-Oct-22 01:33N 35°27' E 139°39'0 0.0
2014-Oct-22 00:33N 35°27' E 139°39'1 0.0
2014-Oct-21 12:33N 35°27' E 139°39'3 2.8
2014-Oct-21 11:33N 35°26' E 139°42'3 2.8
2014-Oct-21 10:33N 35°27' E 139°39'1 0.5
2014-Oct-21 09:33N 35°27' E 139°39'0 0.0
2014-Oct-21 08:33N 35°27' E 139°39'1 0.5
2014-Oct-21 07:33N 35°27' E 139°39'1 0.5
2014-Oct-21 06:33N 35°27' E 139°39'0 0.1
2014-Oct-21 05:33N 35°27' E 139°39'0 0.1
2014-Oct-21 04:33N 35°27' E 139°39'1 0.5
2014-Oct-21 03:33N 35°27' E 139°39'1 0.5
2014-Oct-21 02:33N 35°27' E 139°39'0 0.0
2014-Oct-21 01:33N 35°27' E 139°39'0 0.0
2014-Oct-20 12:27N 35°27' E 139°39'1 1.1
2014-Oct-20 11:33N 35°28' E 139°40'1 0.7
2014-Oct-20 10:34N 35°27' E 139°39'1 0.7
2014-Oct-20 09:33N 35°27' E 139°39'0 0.4
2014-Oct-20 08:33N 35°27' E 139°39'0 0.4
2014-Oct-20 07:33N 35°27' E 139°39'1 0.6
2014-Oct-20 06:34N 35°27' E 139°39'0 0.1
2014-Oct-20 05:34N 35°27' E 139°39'0 0.1
2014-Oct-20 04:33N 35°27' E 139°39'1 0.5
2014-Oct-20 03:34N 35°27' E 139°39'1 0.5
2014-Oct-20 02:33N 35°27' E 139°39'0 0.0
2014-Oct-20 01:33N 35°27' E 139°39'0 0.0
2014-Oct-20 00:33N 35°27' E 139°39'0 0.0
2014-Oct-19 12:30N 35°27' E 139°39'1 0.9
2014-Oct-19 11:33N 35°28' E 139°40'1 1.0
2014-Oct-19 10:33N 35°27' E 139°39'1 0.5
2014-Oct-19 09:33N 35°27' E 139°39'0 0.0
2014-Oct-19 08:33N 35°27' E 139°39'1 0.5
2014-Oct-19 07:34N 35°27' E 139°39'1 0.5
2014-Oct-19 06:33N 35°27' E 139°39'0 0.1
2014-Oct-19 05:33N 35°27' E 139°39'0 0.1
2014-Oct-19 04:33N 35°27' E 139°39'1 0.6
2014-Oct-19 03:34N 35°27' E 139°39'1 0.6
2014-Oct-19 02:33N 35°27' E 139°39'0 0.0
2014-Oct-19 01:33N 35°27' E 139°39'0 0.0
2014-Oct-19 00:33N 35°27' E 139°39'0 0.0
2014-Oct-18 12:33N 35°27' E 139°39'1 1.4
2014-Oct-18 11:33N 35°28' E 139°40'1 1.4
2014-Oct-18 10:33N 35°27' E 139°39'1 0.5
2014-Oct-18 09:33N 35°27' E 139°39'0 0.0
2014-Oct-18 08:33N 35°27' E 139°39'1 0.5
2014-Oct-18 07:34N 35°27' E 139°39'1 0.5
2014-Oct-18 06:33N 35°27' E 139°39'0 0.1
2014-Oct-18 05:33N 35°27' E 139°39'0 0.1
2014-Oct-18 04:34N 35°27' E 139°39'2 1.8
2014-Oct-18 03:34N 35°27' E 139°41'2 1.8
2014-Oct-18 02:34N 35°27' E 139°39'0 0.0
2014-Oct-18 01:33N 35°27' E 139°39'2 0.2
2014-Oct-17 11:34N 35°28' E 139°41'2 2.1
2014-Oct-17 10:33N 35°28' E 139°39'1 0.9
2014-Oct-17 09:34N 35°27' E 139°39'1 0.8
2014-Oct-17 08:34N 35°27' E 139°40'1 0.7
2014-Oct-17 07:34N 35°27' E 139°39'1 0.5
2014-Oct-17 06:34N 35°27' E 139°39'0 0.1
2014-Oct-17 05:34N 35°27' E 139°39'0 0.1
2014-Oct-17 04:34N 35°27' E 139°39'1 0.7
2014-Oct-17 03:34N 35°27' E 139°39'1 0.7
2014-Oct-17 02:34N 35°27' E 139°39'0 0.0
2014-Oct-17 01:34N 35°27' E 139°39'0 0.0
2014-Oct-17 00:34N 35°27' E 139°39'0 0.0
2014-Oct-16 12:33N 35°27' E 139°39'3 2.8
2014-Oct-16 11:33N 35°28' E 139°42'3 2.9
2014-Oct-16 10:33N 35°27' E 139°39'1 0.6
2014-Oct-16 09:33N 35°27' E 139°39'0 0.0
2014-Oct-16 08:34N 35°27' E 139°39'1 0.6
2014-Oct-16 07:33N 35°27' E 139°39'1 0.6
2014-Oct-16 06:33N 35°27' E 139°39'0 0.0
2014-Oct-16 05:33N 35°27' E 139°39'1 0.9
2014-Oct-16 04:33N 35°28' E 139°40'1 0.9
2014-Oct-16 03:33N 35°27' E 139°39'1 0.5
2014-Oct-16 02:33N 35°27' E 139°39'0 0.0
2014-Oct-16 01:34N 35°27' E 139°39'0 0.0
2014-Oct-16 00:34N 35°27' E 139°39'1 0.0
2014-Oct-15 12:34N 35°27' E 139°39'2 1.6
2014-Oct-15 11:34N 35°28' E 139°40'2 1.5
2014-Oct-15 10:34N 35°27' E 139°39'1 0.5
2014-Oct-15 09:34N 35°27' E 139°39'0 0.3
2014-Oct-15 08:34N 35°27' E 139°39'0 0.3
2014-Oct-15 07:33N 35°27' E 139°39'1 0.6
2014-Oct-15 06:34N 35°27' E 139°39'0 0.1
2014-Oct-15 05:34N 35°27' E 139°39'0 0.1
2014-Oct-15 04:33N 35°27' E 139°39'1 0.6
2014-Oct-15 03:33N 35°27' E 139°39'1 0.6
2014-Oct-15 02:34N 35°27' E 139°39'0 0.0
2014-Oct-15 01:34N 35°27' E 139°39'0 0.0
2014-Oct-15 00:33N 35°27' E 139°39'1 0.1
2014-Oct-14 11:33N 35°27' E 139°39'0 0.1
2014-Oct-14 10:33N 35°28' E 139°39'1 0.8
2014-Oct-14 09:33N 35°27' E 139°39'0 0.0
2014-Oct-14 08:33N 35°27' E 139°39'0 0.0
2014-Oct-14 07:33N 35°27' E 139°39'0 0.0
2014-Oct-14 06:33N 35°27' E 139°39'0 0.0
2014-Oct-14 05:33N 35°27' E 139°39'0 0.0
2014-Oct-14 04:33N 35°27' E 139°39'0 0.0
2014-Oct-14 03:34N 35°27' E 139°39'0 0.0
2014-Oct-14 02:33N 35°27' E 139°39'0 0.0
2014-Oct-14 01:33N 35°27' E 139°39'0 0.0
2014-Oct-14 00:33N 35°27' E 139°39'0 0.0
2014-Oct-13 23:28N 35°27' E 139°39'0 0.0
2014-Oct-13 22:33N 35°27' E 139°39'0 0.0
2014-Oct-13 21:32N 35°27' E 139°39'0 0.0
2014-Oct-13 20:33N 35°27' E 139°39'0 0.0
2014-Oct-13 19:31N 35°27' E 139°39'0 0.0
2014-Oct-13 18:29N 35°27' E 139°39'0 0.0
2014-Oct-13 17:31N 35°27' E 139°39'0 0.0
2014-Oct-13 16:25N 35°27' E 139°39'0 0.0
2014-Oct-13 15:31N 35°27' E 139°39'0 0.0
2014-Oct-13 14:31N 35°27' E 139°39'0 0.0
2014-Oct-13 13:31N 35°27' E 139°39'0 0.0
2014-Oct-12 12:29N 35°27' E 139°39'1 0.7
2014-Oct-12 11:33N 35°28' E 139°39'0 0.2
2014-Oct-12 10:33N 35°27' E 139°39'1 0.7
2014-Oct-12 09:33N 35°27' E 139°39'0 0.0
2014-Oct-12 08:33N 35°27' E 139°39'1 0.5
2014-Oct-12 07:33N 35°27' E 139°39'1 0.5
2014-Oct-12 06:33N 35°27' E 139°39'0 0.1
2014-Oct-12 05:33N 35°27' E 139°39'0 0.1
2014-Oct-12 04:33N 35°27' E 139°39'1 0.7
2014-Oct-12 03:34N 35°27' E 139°39'  
Track history (hours):
 
Tides and Currents Weather Stations Pressure Air Temp Water Temp Dewpoint Dewpoint Depression Visibility Wind Speed Wind Dir Waves Ship Positions

Marine Rouge

Last reported at 2014-Oct-22 02:33 UTC. Time now 2014-Oct-22 03:12 UTC.
Position N 35°27' E 139°39'.

Length 52 m; draft 2.8 m.

Type: Passenger vessel. MMSI: 431000518.

Date/timePositionNaut miles runAvg speedWind from/ knotsBaromVisibWave heightAir tempDewpointWater temp
2014-Oct-22 02:33N 35°27' E 139°39'0 0.0
2014-Oct-22 01:33N 35°27' E 139°39'0 0.0
2014-Oct-22 00:33N 35°27' E 139°39'1 0.0
2014-Oct-21 12:33N 35°27' E 139°39'3 2.8
2014-Oct-21 11:33N 35°26' E 139°42'3 2.8
2014-Oct-21 10:33N 35°27' E 139°39'1 0.5
2014-Oct-21 09:33N 35°27' E 139°39'0 0.0
2014-Oct-21 08:33N 35°27' E 139°39'1 0.5
2014-Oct-21 07:33N 35°27' E 139°39'1 0.5
2014-Oct-21 06:33N 35°27' E 139°39'0 0.1
2014-Oct-21 05:33N 35°27' E 139°39'0 0.1
2014-Oct-21 04:33N 35°27' E 139°39'1 0.5
2014-Oct-21 03:33N 35°27' E 139°39'1 0.5
2014-Oct-21 02:33N 35°27' E 139°39'0 0.0
2014-Oct-21 01:33N 35°27' E 139°39'0 0.0
2014-Oct-20 12:27N 35°27' E 139°39'1 1.1
2014-Oct-20 11:33N 35°28' E 139°40'1 0.7
2014-Oct-20 10:34N 35°27' E 139°39'1 0.7
2014-Oct-20 09:33N 35°27' E 139°39'0 0.4
2014-Oct-20 08:33N 35°27' E 139°39'0 0.4
2014-Oct-20 07:33N 35°27' E 139°39'1 0.6
2014-Oct-20 06:34N 35°27' E 139°39'0 0.1
2014-Oct-20 05:34N 35°27' E 139°39'0 0.1
2014-Oct-20 04:33N 35°27' E 139°39'1 0.5
2014-Oct-20 03:34N 35°27' E 139°39'1 0.5
2014-Oct-20 02:33N 35°27' E 139°39'0 0.0
2014-Oct-20 01:33N 35°27' E 139°39'0 0.0
2014-Oct-20 00:33N 35°27' E 139°39'0 0.0
2014-Oct-19 12:30N 35°27' E 139°39'1 0.9
2014-Oct-19 11:33N 35°28' E 139°40'1 1.0
2014-Oct-19 10:33N 35°27' E 139°39'1 0.5
2014-Oct-19 09:33N 35°27' E 139°39'0 0.0
2014-Oct-19 08:33N 35°27' E 139°39'1 0.5
2014-Oct-19 07:34N 35°27' E 139°39'1 0.5
2014-Oct-19 06:33N 35°27' E 139°39'0 0.1
2014-Oct-19 05:33N 35°27' E 139°39'0 0.1
2014-Oct-19 04:33N 35°27' E 139°39'1 0.6
2014-Oct-19 03:34N 35°27' E 139°39'1 0.6
2014-Oct-19 02:33N 35°27' E 139°39'0 0.0
2014-Oct-19 01:33N 35°27' E 139°39'0 0.0
2014-Oct-19 00:33N 35°27' E 139°39'0 0.0
2014-Oct-18 12:33N 35°27' E 139°39'1 1.4
2014-Oct-18 11:33N 35°28' E 139°40'1 1.4
2014-Oct-18 10:33N 35°27' E 139°39'1 0.5
2014-Oct-18 09:33N 35°27' E 139°39'0 0.0
2014-Oct-18 08:33N 35°27' E 139°39'1 0.5
2014-Oct-18 07:34N 35°27' E 139°39'1 0.5
2014-Oct-18 06:33N 35°27' E 139°39'0 0.1
2014-Oct-18 05:33N 35°27' E 139°39'0 0.1
2014-Oct-18 04:34N 35°27' E 139°39'2 1.8
2014-Oct-18 03:34N 35°27' E 139°41'2 1.8
2014-Oct-18 02:34N 35°27' E 139°39'0 0.0
2014-Oct-18 01:33N 35°27' E 139°39'2 0.2
2014-Oct-17 11:34N 35°28' E 139°41'2 2.1
2014-Oct-17 10:33N 35°28' E 139°39'1 0.9
2014-Oct-17 09:34N 35°27' E 139°39'1 0.8
2014-Oct-17 08:34N 35°27' E 139°40'1 0.7
2014-Oct-17 07:34N 35°27' E 139°39'1 0.5
2014-Oct-17 06:34N 35°27' E 139°39'0 0.1
2014-Oct-17 05:34N 35°27' E 139°39'0 0.1
2014-Oct-17 04:34N 35°27' E 139°39'1 0.7
2014-Oct-17 03:34N 35°27' E 139°39'1 0.7
2014-Oct-17 02:34N 35°27' E 139°39'0 0.0
2014-Oct-17 01:34N 35°27' E 139°39'0 0.0
2014-Oct-17 00:34N 35°27' E 139°39'0 0.0
2014-Oct-16 12:33N 35°27' E 139°39'3 2.8
2014-Oct-16 11:33N 35°28' E 139°42'3 2.9
2014-Oct-16 10:33N 35°27' E 139°39'1 0.6
2014-Oct-16 09:33N 35°27' E 139°39'0 0.0
2014-Oct-16 08:34N 35°27' E 139°39'1 0.6
2014-Oct-16 07:33N 35°27' E 139°39'1 0.6
2014-Oct-16 06:33N 35°27' E 139°39'0 0.0
2014-Oct-16 05:33N 35°27' E 139°39'1 0.9
2014-Oct-16 04:33N 35°28' E 139°40'1 0.9
2014-Oct-16 03:33N 35°27' E 139°39'1 0.5
2014-Oct-16 02:33N 35°27' E 139°39'0 0.0
2014-Oct-16 01:34N 35°27' E 139°39'0 0.0
2014-Oct-16 00:34N 35°27' E 139°39'1 0.0
2014-Oct-15 12:34N 35°27' E 139°39'2 1.6
2014-Oct-15 11:34N 35°28' E 139°40'2 1.5
2014-Oct-15 10:34N 35°27' E 139°39'1 0.5
2014-Oct-15 09:34N 35°27' E 139°39'0 0.3
2014-Oct-15 08:34N 35°27' E 139°39'0 0.3
2014-Oct-15 07:33N 35°27' E 139°39'1 0.6
2014-Oct-15 06:34N 35°27' E 139°39'0 0.1
2014-Oct-15 05:34N 35°27' E 139°39'0 0.1
2014-Oct-15 04:33N 35°27' E 139°39'1 0.6
2014-Oct-15 03:33N 35°27' E 139°39'1 0.6
2014-Oct-15 02:34N 35°27' E 139°39'0 0.0
2014-Oct-15 01:34N 35°27' E 139°39'0 0.0
2014-Oct-15 00:33N 35°27' E 139°39'1 0.1
2014-Oct-14 11:33N 35°27' E 139°39'0 0.1
2014-Oct-14 10:33N 35°28' E 139°39'1 0.8
2014-Oct-14 09:33N 35°27' E 139°39'0 0.0
2014-Oct-14 08:33N 35°27' E 139°39'0 0.0
2014-Oct-14 07:33N 35°27' E 139°39'0 0.0
2014-Oct-14 06:33N 35°27' E 139°39'0 0.0
2014-Oct-14 05:33N 35°27' E 139°39'0 0.0
2014-Oct-14 04:33N 35°27' E 139°39'0 0.0
2014-Oct-14 03:34N 35°27' E 139°39'0 0.0
2014-Oct-14 02:33N 35°27' E 139°39'0 0.0
2014-Oct-14 01:33N 35°27' E 139°39'0 0.0
2014-Oct-14 00:33N 35°27' E 139°39'0 0.0
2014-Oct-13 23:28N 35°27' E 139°39'0 0.0
2014-Oct-13 22:33N 35°27' E 139°39'0 0.0
2014-Oct-13 21:32N 35°27' E 139°39'0 0.0
2014-Oct-13 20:33N 35°27' E 139°39'0 0.0
2014-Oct-13 19:31N 35°27' E 139°39'0 0.0
2014-Oct-13 18:29N 35°27' E 139°39'0 0.0
2014-Oct-13 17:31N 35°27' E 139°39'0 0.0
2014-Oct-13 16:25N 35°27' E 139°39'0 0.0
2014-Oct-13 15:31N 35°27' E 139°39'0 0.0
2014-Oct-13 14:31N 35°27' E 139°39'0 0.0
2014-Oct-13 13:31N 35°27' E 139°39'0 0.0
2014-Oct-12 12:29N 35°27' E 139°39'1 0.7
2014-Oct-12 11:33N 35°28' E 139°39'0 0.2
2014-Oct-12 10:33N 35°27' E 139°39'1 0.7
2014-Oct-12 09:33N 35°27' E 139°39'0 0.0
2014-Oct-12 08:33N 35°27' E 139°39'1 0.5
2014-Oct-12 07:33N 35°27' E 139°39'1 0.5
2014-Oct-12 06:33N 35°27' E 139°39'0 0.1
2014-Oct-12 05:33N 35°27' E 139°39'0 0.1
2014-Oct-12 04:33N 35°27' E 139°39'1 0.7
2014-Oct-12 03:34N 35°27' E 139°39'  

Dump ship's entire track history